sensor_id;sensor_type;location;lat;lon;timestamp;noise_LAeq;noise_LA_min;noise_LA_max;noise_LA01;noise_LA95
69609;Laerm;56815;52.320;4.858;2023-04-01T00:00:05;33.93;29.81;47.80;;
69609;Laerm;56815;52.320;4.858;2023-04-01T00:00:15;38.85;29.42;61.88;;
69609;Laerm;56815;52.320;4.858;2023-04-01T00:00:26;35.25;29.61;49.88;;
69609;Laerm;56815;52.320;4.858;2023-04-01T00:00:37;34.90;29.62;49.83;;
69609;Laerm;56815;52.320;4.858;2023-04-01T00:00:47;33.58;29.69;47.12;;
69609;Laerm;56815;52.320;4.858;2023-04-01T00:00:58;34.18;29.06;48.35;;
69609;Laerm;56815;52.320;4.858;2023-04-01T00:01:09;36.25;29.91;55.78;;
69609;Laerm;56815;52.320;4.858;2023-04-01T00:01:22;33.98;31.32;43.50;;
69609;Laerm;56815;52.320;4.858;2023-04-01T00:01:32;33.59;30.72;45.20;;
69609;Laerm;56815;52.320;4.858;2023-04-01T00:01:42;33.97;29.74;50.25;;
69609;Laerm;56815;52.320;4.858;2023-04-01T00:01:52;40.17;31.19;61.11;;
69609;Laerm;56815;52.320;4.858;2023-04-01T00:02:03;38.59;30.97;59.02;;
69609;Laerm;56815;52.320;4.858;2023-04-01T00:02:13;34.46;30.90;46.52;;
69609;Laerm;56815;52.320;4.858;2023-04-01T00:02:23;34.33;30.56;46.38;;
69609;Laerm;56815;52.320;4.858;2023-04-01T00:02:34;33.25;30.29;47.68;;
69609;Laerm;56815;52.320;4.858;2023-04-01T00:02:44;36.49;30.99;52.56;;
69609;Laerm;56815;52.320;4.858;2023-04-01T00:02:55;36.71;32.37;55.05;;
69609;Laerm;56815;52.320;4.858;2023-04-01T00:03:06;35.17;31.63;49.14;;
69609;Laerm;56815;52.320;4.858;2023-04-01T00:03:17;36.16;33.03;45.43;;
69609;Laerm;56815;52.320;4.858;2023-04-01T00:03:27;37.33;32.78;51.05;;
69609;Laerm;56815;52.320;4.858;2023-04-01T00:03:38;39.36;31.73;60.77;;
69609;Laerm;56815;52.320;4.858;2023-04-01T00:03:48;34.50;31.61;48.28;;
69609;Laerm;56815;52.320;4.858;2023-04-01T00:03:58;37.15;31.12;55.09;;
69609;Laerm;56815;52.320;4.858;2023-04-01T00:04:11;35.54;29.75;49.90;;
69609;Laerm;56815;52.320;4.858;2023-04-01T00:04:22;42.70;30.74;63.53;;
69609;Laerm;56815;52.320;4.858;2023-04-01T00:04:32;39.55;33.44;51.60;;
69609;Laerm;56815;52.320;4.858;2023-04-01T00:04:42;42.53;37.53;60.19;;
69609;Laerm;56815;52.320;4.858;2023-04-01T00:04:53;43.24;40.67;49.42;;
69609;Laerm;56815;52.320;4.858;2023-04-01T00:05:03;42.33;39.02;54.59;;
69609;Laerm;56815;52.320;4.858;2023-04-01T00:05:14;41.75;37.59;52.56;;
69609;Laerm;56815;52.320;4.858;2023-04-01T00:05:24;40.14;37.31;49.85;;
69609;Laerm;56815;52.320;4.858;2023-04-01T00:05:35;40.41;36.18;50.56;;
69609;Laerm;56815;52.320;4.858;2023-04-01T00:05:45;41.04;36.78;50.63;;
69609;Laerm;56815;52.320;4.858;2023-04-01T00:05:56;41.08;35.94;55.50;;
69609;Laerm;56815;52.320;4.858;2023-04-01T00:06:08;41.31;34.96;53.56;;
69609;Laerm;56815;52.320;4.858;2023-04-01T00:06:19;40.69;35.74;53.65;;
69609;Laerm;56815;52.320;4.858;2023-04-01T00:06:29;41.42;34.49;53.54;;
69609;Laerm;56815;52.320;4.858;2023-04-01T00:06:40;41.68;34.68;52.93;;
69609;Laerm;56815;52.320;4.858;2023-04-01T00:06:50;42.56;34.76;63.42;;
69609;Laerm;56815;52.320;4.858;2023-04-01T00:07:01;41.43;35.34;52.02;;
69609;Laerm;56815;52.320;4.858;2023-04-01T00:07:12;40.28;35.18;51.08;;
69609;Laerm;56815;52.320;4.858;2023-04-01T00:07:22;42.46;35.74;62.33;;
69609;Laerm;56815;52.320;4.858;2023-04-01T00:07:32;41.48;36.43;51.15;;
69609;Laerm;56815;52.320;4.858;2023-04-01T00:07:43;41.23;36.88;49.99;;
69609;Laerm;56815;52.320;4.858;2023-04-01T00:07:53;41.49;37.70;51.28;;
69609;Laerm;56815;52.320;4.858;2023-04-01T00:08:03;43.29;38.16;58.78;;
69609;Laerm;56815;52.320;4.858;2023-04-01T00:08:14;41.90;37.02;55.66;;
69609;Laerm;56815;52.320;4.858;2023-04-01T00:08:25;42.36;36.27;52.82;;
69609;Laerm;56815;52.320;4.858;2023-04-01T00:08:36;43.00;36.91;59.22;;
69609;Laerm;56815;52.320;4.858;2023-04-01T00:08:46;45.59;36.01;63.97;;
69609;Laerm;56815;52.320;4.858;2023-04-01T00:08:56;40.78;35.44;53.07;;
69609;Laerm;56815;52.320;4.858;2023-04-01T00:09:07;42.19;35.83;56.56;;
69609;Laerm;56815;52.320;4.858;2023-04-01T00:09:17;43.73;34.54;62.45;;
69609;Laerm;56815;52.320;4.858;2023-04-01T00:09:27;42.48;35.01;59.25;;
69609;Laerm;56815;52.320;4.858;2023-04-01T00:09:37;41.74;36.17;52.19;;
69609;Laerm;56815;52.320;4.858;2023-04-01T00:09:48;41.96;34.01;53.84;;
69609;Laerm;56815;52.320;4.858;2023-04-01T00:09:58;39.41;33.22;52.82;;
69609;Laerm;56815;52.320;4.858;2023-04-01T00:10:09;41.04;33.14;55.88;;
69609;Laerm;56815;52.320;4.858;2023-04-01T00:10:20;41.47;34.61;55.57;;
69609;Laerm;56815;52.320;4.858;2023-04-01T00:10:30;42.49;34.53;58.85;;
69609;Laerm;56815;52.320;4.858;2023-04-01T00:10:41;41.47;34.22;62.10;;
69609;Laerm;56815;52.320;4.858;2023-04-01T00:10:51;41.21;35.07;57.59;;
69609;Laerm;56815;52.320;4.858;2023-04-01T00:11:01;39.32;32.38;52.07;;
69609;Laerm;56815;52.320;4.858;2023-04-01T00:11:12;42.26;32.58;62.60;;
69609;Laerm;56815;52.320;4.858;2023-04-01T00:11:22;39.96;32.85;56.91;;
69609;Laerm;56815;52.320;4.858;2023-04-01T00:11:33;39.82;31.66;57.33;;
69609;Laerm;56815;52.320;4.858;2023-04-01T00:11:43;39.91;30.83;58.69;;
69609;Laerm;56815;52.320;4.858;2023-04-01T00:11:55;38.47;31.03;52.51;;
69609;Laerm;56815;52.320;4.858;2023-04-01T00:12:05;40.65;33.36;57.76;;
69609;Laerm;56815;52.320;4.858;2023-04-01T00:12:16;40.01;31.23;56.66;;
69609;Laerm;56815;52.320;4.858;2023-04-01T00:12:26;36.93;31.04;50.58;;
69609;Laerm;56815;52.320;4.858;2023-04-01T00:12:37;38.80;31.85;56.60;;
69609;Laerm;56815;52.320;4.858;2023-04-01T00:12:47;38.98;30.40;53.60;;
69609;Laerm;56815;52.320;4.858;2023-04-01T00:12:57;39.30;30.60;52.80;;
69609;Laerm;56815;52.320;4.858;2023-04-01T00:13:08;37.48;30.73;54.07;;
69609;Laerm;56815;52.320;4.858;2023-04-01T00:13:19;42.38;31.25;63.06;;
69609;Laerm;56815;52.320;4.858;2023-04-01T00:13:30;42.50;30.49;60.24;;
69609;Laerm;56815;52.320;4.858;2023-04-01T00:13:40;38.33;30.07;52.15;;
69609;Laerm;56815;52.320;4.858;2023-04-01T00:13:51;43.22;30.76;61.53;;
69609;Laerm;56815;52.320;4.858;2023-04-01T00:14:01;36.73;30.85;51.85;;
69609;Laerm;56815;52.320;4.858;2023-04-01T00:14:11;41.82;31.44;64.13;;
69609;Laerm;56815;52.320;4.858;2023-04-01T00:14:22;43.56;31.90;63.79;;
69609;Laerm;56815;52.320;4.858;2023-04-01T00:14:32;41.37;31.12;63.82;;
69609;Laerm;56815;52.320;4.858;2023-04-01T00:14:42;39.86;30.84;55.41;;
69609;Laerm;56815;52.320;4.858;2023-04-01T00:14:52;38.02;29.82;53.39;;
69609;Laerm;56815;52.320;4.858;2023-04-01T00:15:04;47.61;30.73;71.84;;
69609;Laerm;56815;52.320;4.858;2023-04-01T00:15:15;38.73;30.42;52.84;;
69609;Laerm;56815;52.320;4.858;2023-04-01T00:15:25;44.89;31.43;65.82;;
69609;Laerm;56815;52.320;4.858;2023-04-01T00:15:36;37.07;30.94;52.01;;
69609;Laerm;56815;52.320;4.858;2023-04-01T00:15:46;35.62;30.83;49.37;;
69609;Laerm;56815;52.320;4.858;2023-04-01T00:15:56;40.41;30.07;58.43;;
69609;Laerm;56815;52.320;4.858;2023-04-01T00:16:07;37.93;30.65;53.99;;
69609;Laerm;56815;52.320;4.858;2023-04-01T00:16:17;37.06;31.35;52.25;;
69609;Laerm;56815;52.320;4.858;2023-04-01T00:16:27;36.87;31.19;51.54;;
69609;Laerm;56815;52.320;4.858;2023-04-01T00:16:38;41.11;30.35;59.05;;
69609;Laerm;56815;52.320;4.858;2023-04-01T00:16:48;36.27;30.59;54.01;;
69609;Laerm;56815;52.320;4.858;2023-04-01T00:16:58;37.41;30.93;55.07;;
69609;Laerm;56815;52.320;4.858;2023-04-01T00:17:09;37.91;30.26;53.82;;
69609;Laerm;56815;52.320;4.858;2023-04-01T00:17:19;38.40;29.86;57.66;;
69609;Laerm;56815;52.320;4.858;2023-04-01T00:17:30;39.31;31.25;60.16;;
69609;Laerm;56815;52.320;4.858;2023-04-01T00:17:40;39.66;32.67;56.62;;
69609;Laerm;56815;52.320;4.858;2023-04-01T00:17:50;38.20;31.32;55.03;;
69609;Laerm;56815;52.320;4.858;2023-04-01T00:18:01;37.42;31.28;50.74;;
69609;Laerm;56815;52.320;4.858;2023-04-01T00:18:12;36.94;30.64;52.55;;
69609;Laerm;56815;52.320;4.858;2023-04-01T00:18:22;40.29;31.06;61.65;;
69609;Laerm;56815;52.320;4.858;2023-04-01T00:18:32;37.94;30.10;55.82;;
69609;Laerm;56815;52.320;4.858;2023-04-01T00:18:43;37.94;30.58;56.58;;
69609;Laerm;56815;52.320;4.858;2023-04-01T00:18:53;40.00;30.77;62.26;;
69609;Laerm;56815;52.320;4.858;2023-04-01T00:19:03;40.69;30.23;60.91;;
69609;Laerm;56815;52.320;4.858;2023-04-01T00:19:14;35.71;30.25;48.85;;
69609;Laerm;56815;52.320;4.858;2023-04-01T00:19:25;41.64;30.90;61.13;;
69609;Laerm;56815;52.320;4.858;2023-04-01T00:19:35;36.82;30.48;55.35;;
69609;Laerm;56815;52.320;4.858;2023-04-01T00:19:45;38.81;31.27;58.13;;
69609;Laerm;56815;52.320;4.858;2023-04-01T00:19:56;36.03;30.56;54.00;;
69609;Laerm;56815;52.320;4.858;2023-04-01T00:20:06;38.41;30.50;57.89;;
69609;Laerm;56815;52.320;4.858;2023-04-01T00:20:17;38.68;29.67;60.57;;
69609;Laerm;56815;52.320;4.858;2023-04-01T00:20:28;36.77;29.62;55.52;;
69609;Laerm;56815;52.320;4.858;2023-04-01T00:20:38;37.16;30.05;51.34;;
69609;Laerm;56815;52.320;4.858;2023-04-01T00:20:49;41.07;30.28;59.17;;
69609;Laerm;56815;52.320;4.858;2023-04-01T00:21:00;39.43;31.01;54.71;;
69609;Laerm;56815;52.320;4.858;2023-04-01T00:21:10;37.47;31.53;53.01;;
69609;Laerm;56815;52.320;4.858;2023-04-01T00:21:21;36.22;31.06;52.17;;
69609;Laerm;56815;52.320;4.858;2023-04-01T00:21:32;36.86;30.47;51.78;;
69609;Laerm;56815;52.320;4.858;2023-04-01T00:21:42;45.48;31.78;69.39;;
69609;Laerm;56815;52.320;4.858;2023-04-01T00:21:53;40.46;31.51;62.57;;
69609;Laerm;56815;52.320;4.858;2023-04-01T00:22:03;38.90;31.69;55.14;;
69609;Laerm;56815;52.320;4.858;2023-04-01T00:22:14;38.94;32.60;56.12;;
69609;Laerm;56815;52.320;4.858;2023-04-01T00:22:24;39.94;32.55;59.78;;
69609;Laerm;56815;52.320;4.858;2023-04-01T00:22:36;36.99;31.56;49.33;;
69609;Laerm;56815;52.320;4.858;2023-04-01T00:22:46;38.23;30.32;56.47;;
69609;Laerm;56815;52.320;4.858;2023-04-01T00:22:56;36.46;32.16;47.92;;
69609;Laerm;56815;52.320;4.858;2023-04-01T00:23:07;42.47;33.17;62.57;;
69609;Laerm;56815;52.320;4.858;2023-04-01T00:23:17;40.01;33.26;54.17;;
69609;Laerm;56815;52.320;4.858;2023-04-01T00:23:28;38.42;33.24;55.70;;
69609;Laerm;56815;52.320;4.858;2023-04-01T00:23:38;38.83;31.77;57.82;;
69609;Laerm;56815;52.320;4.858;2023-04-01T00:23:51;36.37;32.08;47.93;;
69609;Laerm;56815;52.320;4.858;2023-04-01T00:24:02;39.07;31.66;58.11;;
69609;Laerm;56815;52.320;4.858;2023-04-01T00:24:12;37.88;30.66;53.07;;
69609;Laerm;56815;52.320;4.858;2023-04-01T00:24:22;39.24;30.52;56.85;;
69609;Laerm;56815;52.320;4.858;2023-04-01T00:24:33;37.24;30.44;52.52;;
69609;Laerm;56815;52.320;4.858;2023-04-01T00:24:43;37.36;29.99;51.40;;
69609;Laerm;56815;52.320;4.858;2023-04-01T00:24:54;38.58;31.29;55.20;;
69609;Laerm;56815;52.320;4.858;2023-04-01T00:25:04;39.27;31.76;52.39;;
69609;Laerm;56815;52.320;4.858;2023-04-01T00:25:15;43.30;39.18;52.40;;
69609;Laerm;56815;52.320;4.858;2023-04-01T00:25:25;42.52;38.13;52.44;;
69609;Laerm;56815;52.320;4.858;2023-04-01T00:25:35;39.57;32.97;51.26;;
69609;Laerm;56815;52.320;4.858;2023-04-01T00:25:46;36.70;31.73;50.11;;
69609;Laerm;56815;52.320;4.858;2023-04-01T00:25:59;38.25;30.94;53.68;;
69609;Laerm;56815;52.320;4.858;2023-04-01T00:26:09;36.73;31.18;48.81;;
69609;Laerm;56815;52.320;4.858;2023-04-01T00:26:20;39.97;30.98;59.74;;
69609;Laerm;56815;52.320;4.858;2023-04-01T00:26:31;40.84;31.26;57.49;;
69609;Laerm;56815;52.320;4.858;2023-04-01T00:26:41;45.51;31.80;68.06;;
69609;Laerm;56815;52.320;4.858;2023-04-01T00:26:52;36.64;30.93;52.84;;
69609;Laerm;56815;52.320;4.858;2023-04-01T00:27:02;38.16;31.48;57.27;;
69609;Laerm;56815;52.320;4.858;2023-04-01T00:27:13;40.09;32.36;55.01;;
69609;Laerm;56815;52.320;4.858;2023-04-01T00:27:23;38.34;32.65;51.95;;
69609;Laerm;56815;52.320;4.858;2023-04-01T00:27:33;40.62;32.16;61.08;;
69609;Laerm;56815;52.320;4.858;2023-04-01T00:27:44;42.01;32.55;62.31;;
69609;Laerm;56815;52.320;4.858;2023-04-01T00:27:54;38.29;33.62;53.31;;
69609;Laerm;56815;52.320;4.858;2023-04-01T00:28:05;37.06;31.09;49.95;;
69609;Laerm;56815;52.320;4.858;2023-04-01T00:28:16;42.62;31.30;64.16;;
69609;Laerm;56815;52.320;4.858;2023-04-01T00:28:27;41.66;31.81;62.19;;
69609;Laerm;56815;52.320;4.858;2023-04-01T00:28:37;38.86;30.82;59.18;;
69609;Laerm;56815;52.320;4.858;2023-04-01T00:28:47;37.56;31.87;53.38;;
69609;Laerm;56815;52.320;4.858;2023-04-01T00:28:58;39.25;32.45;54.90;;
69609;Laerm;56815;52.320;4.858;2023-04-01T00:29:08;37.77;33.21;51.76;;
69609;Laerm;56815;52.320;4.858;2023-04-01T00:29:18;46.03;33.43;68.86;;
69609;Laerm;56815;52.320;4.858;2023-04-01T00:29:29;39.49;34.55;52.49;;
69609;Laerm;56815;52.320;4.858;2023-04-01T00:29:43;38.73;34.39;54.16;;
69609;Laerm;56815;52.320;4.858;2023-04-01T00:29:53;41.16;33.22;62.76;;
69609;Laerm;56815;52.320;4.858;2023-04-01T00:30:04;38.13;33.17;51.40;;
69609;Laerm;56815;52.320;4.858;2023-04-01T00:30:15;40.94;33.32;61.55;;
69609;Laerm;56815;52.320;4.858;2023-04-01T00:30:25;40.11;33.11;60.44;;
69609;Laerm;56815;52.320;4.858;2023-04-01T00:30:36;40.59;32.39;58.78;;
69609;Laerm;56815;52.320;4.858;2023-04-01T00:30:47;39.33;33.01;51.03;;
69609;Laerm;56815;52.320;4.858;2023-04-01T00:30:57;40.25;33.48;59.27;;
69609;Laerm;56815;52.320;4.858;2023-04-01T00:31:08;39.55;33.08;58.46;;
69609;Laerm;56815;52.320;4.858;2023-04-01T00:31:19;38.61;32.97;53.17;;
69609;Laerm;56815;52.320;4.858;2023-04-01T00:31:29;39.00;33.37;52.05;;
69609;Laerm;56815;52.320;4.858;2023-04-01T00:31:40;40.03;33.73;57.72;;
69609;Laerm;56815;52.320;4.858;2023-04-01T00:31:50;41.37;33.86;62.57;;
69609;Laerm;56815;52.320;4.858;2023-04-01T00:32:00;41.34;34.57;56.30;;
69609;Laerm;56815;52.320;4.858;2023-04-01T00:32:11;41.65;37.87;54.82;;
69609;Laerm;56815;52.320;4.858;2023-04-01T00:32:21;48.29;34.14;70.93;;
69609;Laerm;56815;52.320;4.858;2023-04-01T00:32:31;42.27;35.03;56.88;;
69609;Laerm;56815;52.320;4.858;2023-04-01T00:32:42;39.07;34.19;50.35;;
69609;Laerm;56815;52.320;4.858;2023-04-01T00:32:53;42.32;33.61;61.11;;
69609;Laerm;56815;52.320;4.858;2023-04-01T00:33:03;41.04;33.37;58.64;;
69609;Laerm;56815;52.320;4.858;2023-04-01T00:33:14;41.16;33.68;56.10;;
69609;Laerm;56815;52.320;4.858;2023-04-01T00:33:25;42.75;33.07;62.26;;
69609;Laerm;56815;52.320;4.858;2023-04-01T00:33:35;41.99;33.35;59.32;;
69609;Laerm;56815;52.320;4.858;2023-04-01T00:33:45;39.31;33.47;52.62;;
69609;Laerm;56815;52.320;4.858;2023-04-01T00:33:56;41.83;33.21;58.62;;
69609;Laerm;56815;52.320;4.858;2023-04-01T00:34:06;43.00;32.82;63.24;;
69609;Laerm;56815;52.320;4.858;2023-04-01T00:34:16;46.95;32.72;68.01;;
69609;Laerm;56815;52.320;4.858;2023-04-01T00:34:27;38.58;32.01;50.78;;
69609;Laerm;56815;52.320;4.858;2023-04-01T00:34:37;39.19;32.97;50.80;;
69609;Laerm;56815;52.320;4.858;2023-04-01T00:34:50;42.13;32.87;59.86;;
69609;Laerm;56815;52.320;4.858;2023-04-01T00:35:00;39.87;32.39;52.30;;
69609;Laerm;56815;52.320;4.858;2023-04-01T00:35:10;40.64;31.85;56.92;;
69609;Laerm;56815;52.320;4.858;2023-04-01T00:35:22;44.07;33.66;62.47;;
69609;Laerm;56815;52.320;4.858;2023-04-01T00:35:32;41.22;32.64;53.22;;
69609;Laerm;56815;52.320;4.858;2023-04-01T00:35:43;40.59;32.02;53.16;;
69609;Laerm;56815;52.320;4.858;2023-04-01T00:35:53;45.93;31.89;68.89;;
69609;Laerm;56815;52.320;4.858;2023-04-01T00:36:19;42.55;34.15;62.78;;
69609;Laerm;56815;52.320;4.858;2023-04-01T00:36:30;40.96;34.51;55.44;;
69609;Laerm;56815;52.320;4.858;2023-04-01T00:36:40;40.22;33.20;51.71;;
69609;Laerm;56815;52.320;4.858;2023-04-01T00:36:50;42.47;33.31;58.38;;
69609;Laerm;56815;52.320;4.858;2023-04-01T00:37:02;41.63;33.35;58.53;;
69609;Laerm;56815;52.320;4.858;2023-04-01T00:37:12;40.81;32.99;55.23;;
69609;Laerm;56815;52.320;4.858;2023-04-01T00:37:22;44.07;33.95;61.15;;
69609;Laerm;56815;52.320;4.858;2023-04-01T00:37:34;40.66;34.04;53.92;;
69609;Laerm;56815;52.320;4.858;2023-04-01T00:37:45;40.26;33.45;53.45;;
69609;Laerm;56815;52.320;4.858;2023-04-01T00:37:55;42.19;33.02;59.65;;
69609;Laerm;56815;52.320;4.858;2023-04-01T00:38:05;42.04;32.63;60.30;;
69609;Laerm;56815;52.320;4.858;2023-04-01T00:38:16;39.62;33.91;53.60;;
69609;Laerm;56815;52.320;4.858;2023-04-01T00:38:26;40.22;32.39;57.10;;
69609;Laerm;56815;52.320;4.858;2023-04-01T00:38:37;38.51;32.07;49.10;;
69609;Laerm;56815;52.320;4.858;2023-04-01T00:38:48;40.59;32.48;53.05;;
69609;Laerm;56815;52.320;4.858;2023-04-01T00:38:58;47.84;32.69;69.15;;
69609;Laerm;56815;52.320;4.858;2023-04-01T00:39:11;42.78;32.56;58.58;;
69609;Laerm;56815;52.320;4.858;2023-04-01T00:39:22;41.90;34.68;60.02;;
69609;Laerm;56815;52.320;4.858;2023-04-01T00:39:32;43.53;32.94;62.43;;
69609;Laerm;56815;52.320;4.858;2023-04-01T00:39:42;39.15;32.64;51.65;;
69609;Laerm;56815;52.320;4.858;2023-04-01T00:39:54;40.93;31.92;56.58;;
69609;Laerm;56815;52.320;4.858;2023-04-01T00:40:05;42.20;32.18;64.07;;
69609;Laerm;56815;52.320;4.858;2023-04-01T00:40:24;42.31;32.05;60.55;;
69609;Laerm;56815;52.320;4.858;2023-04-01T00:40:36;41.45;31.61;59.13;;
69609;Laerm;56815;52.320;4.858;2023-04-01T00:40:47;41.49;32.60;60.20;;
69609;Laerm;56815;52.320;4.858;2023-04-01T00:40:57;40.71;31.74;60.58;;
69609;Laerm;56815;52.320;4.858;2023-04-01T00:41:09;41.17;31.85;60.27;;
69609;Laerm;56815;52.320;4.858;2023-04-01T00:41:24;42.15;32.51;62.19;;
69609;Laerm;56815;52.320;4.858;2023-04-01T00:41:36;40.46;31.83;55.02;;
69609;Laerm;56815;52.320;4.858;2023-04-01T00:41:46;45.81;31.20;69.53;;
69609;Laerm;56815;52.320;4.858;2023-04-01T00:41:57;41.63;31.48;58.02;;
69609;Laerm;56815;52.320;4.858;2023-04-01T00:42:09;39.94;31.53;58.53;;
69609;Laerm;56815;52.320;4.858;2023-04-01T00:42:20;43.93;31.88;65.73;;
69609;Laerm;56815;52.320;4.858;2023-04-01T00:42:30;41.13;30.85;59.09;;
69609;Laerm;56815;52.320;4.858;2023-04-01T00:42:40;39.02;31.67;52.21;;
69609;Laerm;56815;52.320;4.858;2023-04-01T00:42:51;41.36;32.57;60.25;;
69609;Laerm;56815;52.320;4.858;2023-04-01T00:43:02;43.90;32.63;64.16;;
69609;Laerm;56815;52.320;4.858;2023-04-01T00:43:16;42.41;31.07;61.69;;
69609;Laerm;56815;52.320;4.858;2023-04-01T00:43:28;41.83;31.48;63.15;;
69609;Laerm;56815;52.320;4.858;2023-04-01T00:43:39;42.16;32.32;62.02;;
69609;Laerm;56815;52.320;4.858;2023-04-01T00:43:50;41.49;33.42;58.43;;
69609;Laerm;56815;52.320;4.858;2023-04-01T00:44:17;39.00;32.01;55.47;;
69609;Laerm;56815;52.320;4.858;2023-04-01T00:44:29;40.62;30.37;62.04;;
69609;Laerm;56815;52.320;4.858;2023-04-01T00:44:41;45.03;31.31;66.50;;
69609;Laerm;56815;52.320;4.858;2023-04-01T00:44:52;42.47;31.55;61.16;;
69609;Laerm;56815;52.320;4.858;2023-04-01T00:45:37;41.19;31.55;60.52;;
69609;Laerm;56815;52.320;4.858;2023-04-01T00:45:45;40.03;31.71;60.51;;
69609;Laerm;56815;52.320;4.858;2023-04-01T00:45:48;41.22;32.02;62.70;;
69609;Laerm;56815;52.320;4.858;2023-04-01T00:45:59;39.10;30.64;58.79;;
69609;Laerm;56815;52.320;4.858;2023-04-01T00:46:10;43.13;30.77;63.87;;
69609;Laerm;56815;52.320;4.858;2023-04-01T00:46:20;41.64;31.02;60.38;;
69609;Laerm;56815;52.320;4.858;2023-04-01T00:46:30;38.22;31.16;55.62;;
69609;Laerm;56815;52.320;4.858;2023-04-01T00:46:40;39.94;30.14;57.52;;
69609;Laerm;56815;52.320;4.858;2023-04-01T00:46:51;37.53;31.19;53.39;;
69609;Laerm;56815;52.320;4.858;2023-04-01T00:47:02;38.21;31.16;50.42;;
69609;Laerm;56815;52.320;4.858;2023-04-01T00:47:12;42.46;31.67;59.96;;
69609;Laerm;56815;52.320;4.858;2023-04-01T00:47:23;43.15;31.81;63.18;;
69609;Laerm;56815;52.320;4.858;2023-04-01T00:47:35;41.48;32.81;57.45;;
69609;Laerm;56815;52.320;4.858;2023-04-01T00:47:46;39.39;31.08;56.72;;
69609;Laerm;56815;52.320;4.858;2023-04-01T00:47:56;37.40;31.13;51.24;;
69609;Laerm;56815;52.320;4.858;2023-04-01T00:48:28;41.32;30.26;62.93;;
69609;Laerm;56815;52.320;4.858;2023-04-01T00:48:45;42.62;30.33;68.06;;
69609;Laerm;56815;52.320;4.858;2023-04-01T00:48:56;40.29;32.07;62.68;;
69609;Laerm;56815;52.320;4.858;2023-04-01T00:49:07;42.66;30.98;62.87;;
69609;Laerm;56815;52.320;4.858;2023-04-01T00:49:19;36.78;30.47;52.49;;
69609;Laerm;56815;52.320;4.858;2023-04-01T00:49:31;42.69;31.14;62.77;;
69609;Laerm;56815;52.320;4.858;2023-04-01T00:49:42;37.12;31.48;49.00;;
69609;Laerm;56815;52.320;4.858;2023-04-01T00:49:53;42.67;30.46;66.47;;
69609;Laerm;56815;52.320;4.858;2023-04-01T00:50:05;36.72;30.35;51.54;;
69609;Laerm;56815;52.320;4.858;2023-04-01T00:50:15;37.89;30.10;53.10;;
69609;Laerm;56815;52.320;4.858;2023-04-01T00:50:25;40.71;30.55;58.38;;
69609;Laerm;56815;52.320;4.858;2023-04-01T00:50:36;42.76;30.58;63.48;;
69609;Laerm;56815;52.320;4.858;2023-04-01T00:50:50;39.26;31.29;58.03;;
69609;Laerm;56815;52.320;4.858;2023-04-01T00:51:02;41.75;30.86;63.24;;
69609;Laerm;56815;52.320;4.858;2023-04-01T00:51:16;40.17;30.04;59.15;;
69609;Laerm;56815;52.320;4.858;2023-04-01T00:51:27;39.06;29.77;59.73;;
69609;Laerm;56815;52.320;4.858;2023-04-01T00:51:39;38.44;30.55;58.59;;
69609;Laerm;56815;52.320;4.858;2023-04-01T00:51:52;38.34;30.78;54.91;;
69609;Laerm;56815;52.320;4.858;2023-04-01T00:52:03;39.27;30.55;58.17;;
69609;Laerm;56815;52.320;4.858;2023-04-01T00:52:15;38.46;30.94;51.45;;
69609;Laerm;56815;52.320;4.858;2023-04-01T00:52:27;40.75;30.61;64.24;;
69609;Laerm;56815;52.320;4.858;2023-04-01T00:52:37;39.68;31.67;57.25;;
69609;Laerm;56815;52.320;4.858;2023-04-01T00:52:48;41.75;32.17;61.85;;
69609;Laerm;56815;52.320;4.858;2023-04-01T00:52:58;40.28;32.40;58.90;;
69609;Laerm;56815;52.320;4.858;2023-04-01T00:53:10;36.83;30.67;51.02;;
69609;Laerm;56815;52.320;4.858;2023-04-01T00:53:20;36.66;30.16;52.10;;
69609;Laerm;56815;52.320;4.858;2023-04-01T00:53:31;38.00;30.43;54.55;;
69609;Laerm;56815;52.320;4.858;2023-04-01T00:53:43;38.44;29.76;57.64;;
69609;Laerm;56815;52.320;4.858;2023-04-01T00:53:55;38.33;30.23;56.63;;
69609;Laerm;56815;52.320;4.858;2023-04-01T00:54:06;40.18;32.49;59.52;;
69609;Laerm;56815;52.320;4.858;2023-04-01T00:54:17;39.06;31.68;57.92;;
69609;Laerm;56815;52.320;4.858;2023-04-01T00:54:29;42.10;31.00;65.01;;
69609;Laerm;56815;52.320;4.858;2023-04-01T00:54:40;42.71;31.08;63.56;;
69609;Laerm;56815;52.320;4.858;2023-04-01T00:54:53;39.04;30.33;56.07;;
69609;Laerm;56815;52.320;4.858;2023-04-01T00:55:05;41.42;30.19;62.52;;
69609;Laerm;56815;52.320;4.858;2023-04-01T00:55:17;38.89;30.22;58.30;;
69609;Laerm;56815;52.320;4.858;2023-04-01T00:55:30;36.71;29.46;54.28;;
69609;Laerm;56815;52.320;4.858;2023-04-01T00:55:43;41.50;30.21;59.61;;
69609;Laerm;56815;52.320;4.858;2023-04-01T00:56:14;38.35;30.83;58.36;;
69609;Laerm;56815;52.320;4.858;2023-04-01T00:56:27;38.22;30.05;56.75;;
69609;Laerm;56815;52.320;4.858;2023-04-01T00:56:41;44.50;30.41;69.70;;
69609;Laerm;56815;52.320;4.858;2023-04-01T00:56:55;36.97;31.77;53.53;;
69609;Laerm;56815;52.320;4.858;2023-04-01T00:57:09;36.42;30.52;54.64;;
69609;Laerm;56815;52.320;4.858;2023-04-01T00:57:42;39.10;31.11;59.08;;
69609;Laerm;56815;52.320;4.858;2023-04-01T00:57:52;39.55;30.65;60.47;;
69609;Laerm;56815;52.320;4.858;2023-04-01T00:58:03;38.21;30.91;53.32;;
69609;Laerm;56815;52.320;4.858;2023-04-01T00:58:15;35.69;30.45;52.60;;
69609;Laerm;56815;52.320;4.858;2023-04-01T00:58:27;39.63;30.32;55.68;;
69609;Laerm;56815;52.320;4.858;2023-04-01T00:58:43;36.87;31.15;49.23;;
69609;Laerm;56815;52.320;4.858;2023-04-01T00:58:56;42.69;30.43;63.26;;
69609;Laerm;56815;52.320;4.858;2023-04-01T00:59:13;39.97;30.32;58.33;;
69609;Laerm;56815;52.320;4.858;2023-04-01T00:59:25;43.62;30.40;67.78;;
69609;Laerm;56815;52.320;4.858;2023-04-01T00:59:38;41.33;29.73;58.25;;
69609;Laerm;56815;52.320;4.858;2023-04-01T00:59:50;39.54;30.65;53.62;;
69609;Laerm;56815;52.320;4.858;2023-04-01T01:00:04;37.70;30.14;56.80;;
69609;Laerm;56815;52.320;4.858;2023-04-01T01:00:17;41.03;30.51;60.39;;
69609;Laerm;56815;52.320;4.858;2023-04-01T01:00:27;40.65;31.23;60.30;;
69609;Laerm;56815;52.320;4.858;2023-04-01T01:00:38;38.99;30.24;56.40;;
69609;Laerm;56815;52.320;4.858;2023-04-01T01:00:48;37.96;31.05;50.31;;
69609;Laerm;56815;52.320;4.858;2023-04-01T01:01:00;40.58;31.76;59.79;;
69609;Laerm;56815;52.320;4.858;2023-04-01T01:01:11;38.17;31.73;53.14;;
69609;Laerm;56815;52.320;4.858;2023-04-01T01:01:21;42.22;31.72;62.79;;
69609;Laerm;56815;52.320;4.858;2023-04-01T01:01:32;42.09;30.89;63.65;;
69609;Laerm;56815;52.320;4.858;2023-04-01T01:01:44;39.39;30.44;59.67;;
69609;Laerm;56815;52.320;4.858;2023-04-01T01:01:54;43.55;30.83;65.24;;
69609;Laerm;56815;52.320;4.858;2023-04-01T01:02:05;37.28;30.34;50.28;;
69609;Laerm;56815;52.320;4.858;2023-04-01T01:02:17;38.57;30.33;57.63;;
69609;Laerm;56815;52.320;4.858;2023-04-01T01:02:28;40.68;30.30;61.69;;
69609;Laerm;56815;52.320;4.858;2023-04-01T01:02:38;38.35;30.69;55.79;;
69609;Laerm;56815;52.320;4.858;2023-04-01T01:02:51;40.53;30.19;60.93;;
69609;Laerm;56815;52.320;4.858;2023-04-01T01:03:02;37.69;30.23;50.86;;
69609;Laerm;56815;52.320;4.858;2023-04-01T01:03:12;37.08;31.01;51.53;;